createdAt,value
2017-06-29T00:00:40.978Z,1012.06
2017-06-29T00:01:43.667Z,1012.09
2017-06-29T00:02:46.362Z,1012.05
2017-06-29T00:03:49.732Z,1012.05
2017-06-29T00:04:51.778Z,1012.11
2017-06-29T00:05:54.455Z,1012.12
2017-06-29T00:06:57.175Z,1012.09
2017-06-29T00:07:59.859Z,1012.12
2017-06-29T00:09:02.449Z,1012.08
2017-06-29T00:10:05.132Z,1012.06
2017-06-29T00:11:07.825Z,1012.04
2017-06-29T00:12:10.517Z,1012.04
2017-06-29T00:13:13.211Z,1011.98
2017-06-29T00:14:15.801Z,1012.01
2017-06-29T00:15:18.395Z,1012.04
2017-06-29T00:16:22.371Z,1012.06
2017-06-29T00:17:25.428Z,1012.09
2017-06-29T00:18:28.030Z,1012.08
2017-06-29T00:19:30.556Z,1012.09
2017-06-29T00:20:33.121Z,1012.07
2017-06-29T00:21:35.709Z,1012.09
2017-06-29T00:22:38.490Z,1012.12
2017-06-29T00:23:41.158Z,1012.10
2017-06-29T00:24:44.091Z,1012.13
2017-06-29T00:25:46.665Z,1012.13
2017-06-29T00:26:49.201Z,1012.11
2017-06-29T00:27:51.816Z,1012.13
2017-06-29T00:28:54.341Z,1012.16
2017-06-29T00:29:56.933Z,1012.19
2017-06-29T00:31:00.483Z,1012.22
2017-06-29T00:32:03.153Z,1012.15
2017-06-29T00:33:06.222Z,1012.13
2017-06-29T00:34:08.919Z,1012.16
2017-06-29T00:35:11.562Z,1012.21
2017-06-29T00:36:14.194Z,1012.21
2017-06-29T00:37:16.675Z,1012.28
2017-06-29T00:38:19.226Z,1012.26
2017-06-29T00:39:21.836Z,1012.29
2017-06-29T00:40:24.519Z,1012.22
2017-06-29T00:41:27.235Z,1012.21
2017-06-29T00:42:29.829Z,1012.15
2017-06-29T00:43:32.540Z,1012.15
2017-06-29T00:44:35.265Z,1012.17
2017-06-29T00:45:37.979Z,1012.15
2017-06-29T00:46:40.653Z,1012.18
2017-06-29T00:47:43.168Z,1012.17
2017-06-29T00:48:46.369Z,1012.18
2017-06-29T00:49:48.952Z,1012.21
2017-06-29T00:50:51.545Z,1012.19
2017-06-29T00:51:54.344Z,1012.24
2017-06-29T00:52:56.934Z,1012.24
2017-06-29T00:53:59.528Z,1012.20
2017-06-29T00:55:02.119Z,1012.18
2017-06-29T00:56:04.846Z,1012.21
2017-06-29T00:57:07.548Z,1012.17
2017-06-29T00:58:10.241Z,1012.17
2017-06-29T00:59:12.982Z,1012.18
2017-06-29T01:00:18.801Z,1012.15
2017-06-29T01:01:24.861Z,1012.15
2017-06-29T01:02:27.298Z,1012.10
2017-06-29T01:03:29.934Z,1012.09
2017-06-29T01:04:32.654Z,1012.12
2017-06-29T01:05:35.134Z,1012.15
2017-06-29T01:06:37.639Z,1012.20
2017-06-29T01:07:40.206Z,1012.17
2017-06-29T01:08:42.768Z,1012.17
2017-06-29T01:09:45.467Z,1012.20
2017-06-29T01:10:48.057Z,1012.24
2017-06-29T01:12:53.345Z,1012.28
2017-06-29T01:13:56.802Z,1012.26
2017-06-29T01:14:58.673Z,1012.25
2017-06-29T01:16:01.203Z,1012.27
2017-06-29T01:17:03.800Z,1012.26
2017-06-29T01:18:06.399Z,1012.32
2017-06-29T01:19:10.128Z,1012.30
2017-06-29T01:20:14.661Z,1012.27
2017-06-29T01:21:17.352Z,1012.30
2017-06-29T01:22:20.035Z,1012.25
2017-06-29T01:23:25.000Z,1012.27
2017-06-29T01:24:27.688Z,1012.25
2017-06-29T01:25:32.295Z,1012.26
2017-06-29T01:26:34.983Z,1012.25
2017-06-29T01:27:37.712Z,1012.26
2017-06-29T01:28:42.105Z,1012.29
2017-06-29T01:29:44.768Z,1012.26
2017-06-29T01:30:47.289Z,1012.29
2017-06-29T01:31:49.900Z,1012.32
2017-06-29T01:32:52.567Z,1012.32
2017-06-29T01:33:55.250Z,1012.34
2017-06-29T01:34:57.964Z,1012.36
2017-06-29T01:36:01.624Z,1012.35
2017-06-29T01:37:10.300Z,1012.36
2017-06-29T01:38:14.362Z,1012.36
2017-06-29T01:39:16.895Z,1012.35
2017-06-29T01:40:19.475Z,1012.36
2017-06-29T01:41:22.069Z,1012.32
2017-06-29T01:42:24.686Z,1012.38
2017-06-29T01:43:27.371Z,1012.38
2017-06-29T01:44:29.990Z,1012.34
2017-06-29T01:45:32.550Z,1012.36
2017-06-29T01:46:35.252Z,1012.39
2017-06-29T01:47:37.939Z,1012.42
2017-06-29T01:48:40.624Z,1012.43
2017-06-29T01:49:43.212Z,1012.44
2017-06-29T01:50:45.875Z,1012.44
2017-06-29T01:51:48.505Z,1012.40
2017-06-29T01:52:51.183Z,1012.42
2017-06-29T01:53:53.712Z,1012.39
2017-06-29T01:54:56.403Z,1012.43
2017-06-29T01:55:59.109Z,1012.36
2017-06-29T01:57:01.779Z,1012.36
2017-06-29T01:58:04.472Z,1012.36
2017-06-29T01:59:07.085Z,1012.37
2017-06-29T02:00:13.321Z,1012.41
2017-06-29T02:01:20.967Z,1012.38
2017-06-29T02:02:23.984Z,1012.41
2017-06-29T02:03:26.574Z,1012.41
2017-06-29T02:04:29.193Z,1012.43
2017-06-29T02:05:31.812Z,1012.41
2017-06-29T02:06:34.525Z,1012.42
2017-06-29T02:07:37.151Z,1012.45
2017-06-29T02:08:39.741Z,1012.48
2017-06-29T02:09:42.345Z,1012.44
2017-06-29T02:10:44.919Z,1012.44
2017-06-29T02:11:47.625Z,1012.50
2017-06-29T02:12:50.315Z,1012.45
2017-06-29T02:13:53.010Z,1012.41
2017-06-29T02:14:55.595Z,1012.41
2017-06-29T02:15:58.257Z,1012.39
2017-06-29T02:17:00.846Z,1012.39
2017-06-29T02:18:03.459Z,1012.39
2017-06-29T02:19:08.952Z,1012.44
2017-06-29T02:20:11.533Z,1012.41
2017-06-29T02:21:14.253Z,1012.44
2017-06-29T02:22:16.746Z,1012.41
2017-06-29T02:23:19.436Z,1012.40
2017-06-29T02:24:22.123Z,1012.39
2017-06-29T02:25:24.801Z,1012.36
2017-06-29T02:26:27.504Z,1012.39
2017-06-29T02:27:30.195Z,1012.41
2017-06-29T02:28:32.818Z,1012.42
2017-06-29T02:29:35.503Z,1012.46
2017-06-29T02:30:38.148Z,1012.44
2017-06-29T02:31:40.710Z,1012.45
2017-06-29T02:32:43.306Z,1012.45
2017-06-29T02:33:45.830Z,1012.46
2017-06-29T02:34:48.358Z,1012.44
2017-06-29T02:35:50.945Z,1012.47
2017-06-29T02:36:53.692Z,1012.46
2017-06-29T02:37:56.279Z,1012.42
2017-06-29T02:38:58.862Z,1012.45
2017-06-29T02:40:01.589Z,1012.46
2017-06-29T02:41:04.256Z,1012.49
2017-06-29T02:42:06.851Z,1012.49
2017-06-29T02:43:09.446Z,1012.52
2017-06-29T02:44:12.145Z,1012.49
2017-06-29T02:45:14.742Z,1012.49
2017-06-29T02:46:17.326Z,1012.48
2017-06-29T02:47:20.050Z,1012.50
2017-06-29T02:48:23.288Z,1012.47
2017-06-29T02:49:25.976Z,1012.49
2017-06-29T02:50:28.667Z,1012.51
2017-06-29T02:51:31.381Z,1012.53
2017-06-29T02:52:34.082Z,1012.56
2017-06-29T02:53:36.794Z,1012.57
2017-06-29T02:54:39.505Z,1012.57
2017-06-29T02:55:42.181Z,1012.56
2017-06-29T02:56:45.326Z,1012.52
2017-06-29T02:57:47.892Z,1012.55
2017-06-29T02:58:50.521Z,1012.56
2017-06-29T02:59:53.102Z,1012.53
2017-06-29T03:00:59.757Z,1012.55
2017-06-29T03:02:06.478Z,1012.56
2017-06-29T03:03:09.047Z,1012.60
2017-06-29T03:04:11.521Z,1012.57
2017-06-29T03:05:14.782Z,1012.63
2017-06-29T03:06:17.373Z,1012.61
2017-06-29T03:07:19.960Z,1012.61
2017-06-29T03:08:22.554Z,1012.59
2017-06-29T03:09:25.146Z,1012.55
2017-06-29T03:10:27.823Z,1012.55
2017-06-29T03:11:30.467Z,1012.55
2017-06-29T03:12:33.026Z,1012.53
2017-06-29T03:13:35.604Z,1012.53
2017-06-29T03:14:38.291Z,1012.51
2017-06-29T03:15:40.983Z,1012.50
2017-06-29T03:16:43.662Z,1012.47
2017-06-29T03:17:46.370Z,1012.50
2017-06-29T03:18:48.882Z,1012.49
2017-06-29T03:19:51.485Z,1012.53
2017-06-29T03:20:54.142Z,1012.50
2017-06-29T03:21:56.794Z,1012.50
2017-06-29T03:22:59.440Z,1012.54
2017-06-29T03:24:02.066Z,1012.55
2017-06-29T03:25:04.765Z,1012.57
2017-06-29T03:26:08.294Z,1012.59
2017-06-29T03:27:10.833Z,1012.60
2017-06-29T03:28:13.383Z,1012.66
2017-06-29T03:29:15.923Z,1012.66
2017-06-29T03:30:18.530Z,1012.65
2017-06-29T03:31:21.056Z,1012.66
2017-06-29T03:32:23.681Z,1012.67
2017-06-29T03:33:26.309Z,1012.68
2017-06-29T03:34:28.916Z,1012.68
2017-06-29T03:35:31.597Z,1012.65
2017-06-29T03:36:34.303Z,1012.67
2017-06-29T03:37:36.979Z,1012.67
2017-06-29T03:38:39.685Z,1012.66
2017-06-29T03:39:43.195Z,1012.68
2017-06-29T03:40:45.686Z,1012.66
2017-06-29T03:41:48.181Z,1012.64
2017-06-29T03:42:50.727Z,1012.65
2017-06-29T03:43:53.408Z,1012.61
2017-06-29T03:44:56.078Z,1012.66
2017-06-29T03:45:58.804Z,1012.66
2017-06-29T03:47:01.494Z,1012.67
2017-06-29T03:48:04.059Z,1012.66
2017-06-29T03:49:06.656Z,1012.69
2017-06-29T03:50:09.238Z,1012.66
2017-06-29T03:51:12.013Z,1012.63
2017-06-29T03:52:14.741Z,1012.60
2017-06-29T03:53:17.439Z,1012.61
2017-06-29T03:54:20.110Z,1012.59
2017-06-29T03:55:22.688Z,1012.61
2017-06-29T03:56:25.200Z,1012.59
2017-06-29T03:57:27.734Z,1012.58
2017-06-29T03:58:30.266Z,1012.52
2017-06-29T03:59:32.789Z,1012.52
2017-06-29T04:00:38.797Z,1012.50
2017-06-29T04:01:46.714Z,1012.48
2017-06-29T04:02:49.149Z,1012.52
2017-06-29T04:03:51.770Z,1012.48
2017-06-29T04:04:54.335Z,1012.51
2017-06-29T04:05:56.870Z,1012.51
2017-06-29T04:06:59.512Z,1012.52
2017-06-29T04:08:01.985Z,1012.55
2017-06-29T04:09:04.514Z,1012.56
2017-06-29T04:10:07.042Z,1012.53
2017-06-29T04:11:09.616Z,1012.56
2017-06-29T04:12:12.888Z,1012.55
2017-06-29T04:13:15.622Z,1012.54
2017-06-29T04:14:18.350Z,1012.53
2017-06-29T04:15:21.025Z,1012.55
2017-06-29T04:16:23.692Z,1012.55
2017-06-29T04:17:26.260Z,1012.53
2017-06-29T04:18:28.895Z,1012.52
2017-06-29T04:19:31.584Z,1012.54
2017-06-29T04:20:34.157Z,1012.51
2017-06-29T04:21:36.884Z,1012.53
2017-06-29T04:22:39.495Z,1012.59
2017-06-29T04:26:45.686Z,1012.55
2017-06-29T23:39:58.477Z,1009.27
2017-06-29T23:41:01.114Z,1009.26
2017-06-29T23:42:24.479Z,1009.23
2017-06-29T23:43:27.075Z,1009.20
2017-06-29T23:44:29.676Z,1009.21
2017-06-29T23:45:32.208Z,1009.17
2017-06-29T23:46:34.787Z,1009.16
2017-06-29T23:47:37.471Z,1009.14
2017-06-29T23:48:40.015Z,1009.15
2017-06-29T23:49:43.363Z,1009.15
2017-06-29T23:50:45.959Z,1009.14
2017-06-29T23:51:49.548Z,1009.11
2017-06-29T23:52:54.557Z,1009.10
2017-06-29T23:53:57.456Z,1009.11
2017-06-29T23:55:04.917Z,1009.11
2017-06-29T23:56:08.544Z,1009.13
2017-06-29T23:57:14.333Z,1009.13
2017-06-29T23:58:18.691Z,1009.14
2017-06-29T23:59:22.330Z,1009.11
